Huvudsida
METAR-TAF:

METAR-TAF

Flygplatser :

N'Djamena, Tchad

latitud: 12-08N, longitud: 015-02E, höjd: 295 m

Aktuellt väderrapport

Denna rapport gjordes för 2 timmar och 47 minuter sedan, klockan 10:00 UTC
Vind 15 kt från nord/nordost, varierande mellan nord/nordost och ost
Temperatur 39°C
Fuktighet 4%
Tryck 1011 hPa
Sikt 10 km eller mer
Inga moln under 1 500 m eller inga cumulonimbus

METAR: FTTJ 251000Z 03015KT 030V100 CAVOK 39/M10 Q1011 NOSIG

Tid: 13:47 (12:47 UTC)

Väderprognos

Denna rapport gjordes för 1 timme och 47 minuter sedan, klockan 11:00 UTC
Prognos gäller från 25 kl. 12 UTC till 26 kl. 18 UTC
Vind 12 kt från nord
Sikt: 8000 m
Sannolikhet 30% :
Temporärt
från 25 kl. 16 UTC till 25 kl. 19 UTC
Sikt: 4000 m
utbrett stoft

TAF: FTTJ 251100Z 2512/2618 01012KT 8000 NSC PROB30 TEMPO 2516/2519 4000 DU

Aktuella väderrapporter och prognoser från 4000 flygplatser (METAR- och TAF-rapporter).

De tillgängliga stationerna syns som gula och röda prickar på kartan.

För musen över prickarna för att se namnen på stationerna.

Klicka sedan för att få väderrapporter och prognoser.

För att ändra kartan: Klicka på de gröna knapparna med ett svart kors på för att zooma in; den gröna knappen med ett streck på för att zooma ut; eller på de gröna pilarna för angränsande kartor.


METAR-TAF: